sensor_id;sensor_type;location;lat;lon;timestamp;temperature;humidity
25128;DHT22;13107;51.304;6.866;2023-12-29T00:01:01;10.50;99.90
25128;DHT22;13107;51.304;6.866;2023-12-29T00:05:04;10.50;99.90
25128;DHT22;13107;51.304;6.866;2023-12-29T00:09:06;10.40;99.90
25128;DHT22;13107;51.304;6.866;2023-12-29T00:13:07;10.40;99.90
25128;DHT22;13107;51.304;6.866;2023-12-29T00:17:09;10.50;99.90
25128;DHT22;13107;51.304;6.866;2023-12-29T00:21:11;10.50;99.90
25128;DHT22;13107;51.304;6.866;2023-12-29T00:25:13;10.50;99.90
25128;DHT22;13107;51.304;6.866;2023-12-29T00:29:15;10.50;99.90
25128;DHT22;13107;51.304;6.866;2023-12-29T00:33:17;10.50;99.90
25128;DHT22;13107;51.304;6.866;2023-12-29T00:37:19;10.50;99.90
25128;DHT22;13107;51.304;6.866;2023-12-29T00:41:20;10.50;99.90
25128;DHT22;13107;51.304;6.866;2023-12-29T00:45:22;10.50;99.90
25128;DHT22;13107;51.304;6.866;2023-12-29T00:49:24;10.50;99.90
25128;DHT22;13107;51.304;6.866;2023-12-29T00:53:26;10.50;99.90
25128;DHT22;13107;51.304;6.866;2023-12-29T00:57:27;10.60;99.90
25128;DHT22;13107;51.304;6.866;2023-12-29T01:01:33;10.50;99.90
25128;DHT22;13107;51.304;6.866;2023-12-29T01:05:35;10.50;99.90
25128;DHT22;13107;51.304;6.866;2023-12-29T01:09:38;10.50;99.90
25128;DHT22;13107;51.304;6.866;2023-12-29T01:13:41;10.50;99.90
25128;DHT22;13107;51.304;6.866;2023-12-29T01:17:43;10.50;99.90
25128;DHT22;13107;51.304;6.866;2023-12-29T01:21:46;10.50;99.90
25128;DHT22;13107;51.304;6.866;2023-12-29T01:25:47;10.50;99.90
25128;DHT22;13107;51.304;6.866;2023-12-29T01:29:49;10.50;99.90
25128;DHT22;13107;51.304;6.866;2023-12-29T01:33:51;10.50;99.90
25128;DHT22;13107;51.304;6.866;2023-12-29T01:37:53;10.50;99.90
25128;DHT22;13107;51.304;6.866;2023-12-29T01:41:57;10.50;99.90
25128;DHT22;13107;51.304;6.866;2023-12-29T01:45:59;10.50;99.90
25128;DHT22;13107;51.304;6.866;2023-12-29T01:50:01;10.50;99.90
25128;DHT22;13107;51.304;6.866;2023-12-29T01:54:03;10.40;99.90
25128;DHT22;13107;51.304;6.866;2023-12-29T01:58:05;10.50;99.90
25128;DHT22;13107;51.304;6.866;2023-12-29T02:02:07;10.50;99.90
25128;DHT22;13107;51.304;6.866;2023-12-29T02:06:10;10.50;99.90
25128;DHT22;13107;51.304;6.866;2023-12-29T02:10:12;10.50;99.90
25128;DHT22;13107;51.304;6.866;2023-12-29T02:14:18;10.40;99.90
25128;DHT22;13107;51.304;6.866;2023-12-29T02:18:21;10.30;99.90
25128;DHT22;13107;51.304;6.866;2023-12-29T02:22:24;10.20;99.90
25128;DHT22;13107;51.304;6.866;2023-12-29T02:26:29;9.90;99.90
25128;DHT22;13107;51.304;6.866;2023-12-29T02:34:38;9.50;99.90
25128;DHT22;13107;51.304;6.866;2023-12-29T02:38:47;9.50;99.90
25128;DHT22;13107;51.304;6.866;2023-12-29T02:42:49;9.40;99.90
25128;DHT22;13107;51.304;6.866;2023-12-29T02:46:51;9.50;99.90
25128;DHT22;13107;51.304;6.866;2023-12-29T02:50:53;9.50;99.90
25128;DHT22;13107;51.304;6.866;2023-12-29T02:54:54;9.50;99.90
25128;DHT22;13107;51.304;6.866;2023-12-29T02:58:56;9.60;99.90
25128;DHT22;13107;51.304;6.866;2023-12-29T03:02:58;9.60;99.90
25128;DHT22;13107;51.304;6.866;2023-12-29T03:07:00;9.60;99.90
25128;DHT22;13107;51.304;6.866;2023-12-29T03:11:02;9.60;99.90
25128;DHT22;13107;51.304;6.866;2023-12-29T03:15:04;9.60;99.90
25128;DHT22;13107;51.304;6.866;2023-12-29T03:19:05;9.60;99.90
25128;DHT22;13107;51.304;6.866;2023-12-29T03:23:07;9.60;99.90
25128;DHT22;13107;51.304;6.866;2023-12-29T03:27:09;9.70;99.90
25128;DHT22;13107;51.304;6.866;2023-12-29T03:31:11;9.70;99.90
25128;DHT22;13107;51.304;6.866;2023-12-29T03:35:13;9.70;99.90
25128;DHT22;13107;51.304;6.866;2023-12-29T03:39:15;9.80;99.90
25128;DHT22;13107;51.304;6.866;2023-12-29T03:43:17;9.80;99.90
25128;DHT22;13107;51.304;6.866;2023-12-29T03:47:18;9.80;99.90
25128;DHT22;13107;51.304;6.866;2023-12-29T03:51:20;9.80;99.90
25128;DHT22;13107;51.304;6.866;2023-12-29T03:55:22;9.90;99.90
25128;DHT22;13107;51.304;6.866;2023-12-29T03:59:23;9.90;99.90
25128;DHT22;13107;51.304;6.866;2023-12-29T04:03:25;10.00;99.90
25128;DHT22;13107;51.304;6.866;2023-12-29T04:07:27;10.00;99.90
25128;DHT22;13107;51.304;6.866;2023-12-29T04:11:29;10.00;99.90
25128;DHT22;13107;51.304;6.866;2023-12-29T04:15:30;10.10;99.90
25128;DHT22;13107;51.304;6.866;2023-12-29T04:19:32;10.10;99.90
25128;DHT22;13107;51.304;6.866;2023-12-29T04:23:34;10.10;99.90
25128;DHT22;13107;51.304;6.866;2023-12-29T04:27:36;10.20;99.90
25128;DHT22;13107;51.304;6.866;2023-12-29T04:31:38;10.20;99.90
25128;DHT22;13107;51.304;6.866;2023-12-29T04:35:39;10.10;99.90
25128;DHT22;13107;51.304;6.866;2023-12-29T04:39:41;10.10;99.90
25128;DHT22;13107;51.304;6.866;2023-12-29T04:43:43;10.00;99.90
25128;DHT22;13107;51.304;6.866;2023-12-29T04:47:44;10.00;99.90
25128;DHT22;13107;51.304;6.866;2023-12-29T04:51:46;10.00;99.90
25128;DHT22;13107;51.304;6.866;2023-12-29T04:55:50;10.10;99.90
25128;DHT22;13107;51.304;6.866;2023-12-29T04:59:51;10.10;99.90
25128;DHT22;13107;51.304;6.866;2023-12-29T05:03:53;10.10;99.90
25128;DHT22;13107;51.304;6.866;2023-12-29T05:07:55;10.10;99.90
25128;DHT22;13107;51.304;6.866;2023-12-29T05:11:57;10.10;99.90
25128;DHT22;13107;51.304;6.866;2023-12-29T05:15:58;10.10;99.90
25128;DHT22;13107;51.304;6.866;2023-12-29T05:20:01;10.20;99.90
25128;DHT22;13107;51.304;6.866;2023-12-29T05:24:03;10.20;99.90
25128;DHT22;13107;51.304;6.866;2023-12-29T05:28:06;10.20;99.90
25128;DHT22;13107;51.304;6.866;2023-12-29T05:32:07;10.20;99.90
25128;DHT22;13107;51.304;6.866;2023-12-29T05:36:10;10.20;99.90
25128;DHT22;13107;51.304;6.866;2023-12-29T05:40:12;10.30;99.90
25128;DHT22;13107;51.304;6.866;2023-12-29T05:44:14;10.20;99.90
25128;DHT22;13107;51.304;6.866;2023-12-29T05:48:17;10.10;99.90
25128;DHT22;13107;51.304;6.866;2023-12-29T05:52:21;10.20;99.90
25128;DHT22;13107;51.304;6.866;2023-12-29T05:56:23;10.10;99.90
25128;DHT22;13107;51.304;6.866;2023-12-29T06:00:27;10.10;99.90
25128;DHT22;13107;51.304;6.866;2023-12-29T06:04:28;10.10;99.90
25128;DHT22;13107;51.304;6.866;2023-12-29T06:08:30;10.10;99.90
25128;DHT22;13107;51.304;6.866;2023-12-29T06:12:32;10.10;99.90
25128;DHT22;13107;51.304;6.866;2023-12-29T06:16:34;10.20;99.90
25128;DHT22;13107;51.304;6.866;2023-12-29T06:20:36;10.10;99.90
25128;DHT22;13107;51.304;6.866;2023-12-29T06:24:38;10.10;99.90
25128;DHT22;13107;51.304;6.866;2023-12-29T06:28:39;10.10;99.90
25128;DHT22;13107;51.304;6.866;2023-12-29T06:32:41;10.10;99.90
25128;DHT22;13107;51.304;6.866;2023-12-29T06:36:43;10.10;99.90
25128;DHT22;13107;51.304;6.866;2023-12-29T06:40:45;10.10;99.90
25128;DHT22;13107;51.304;6.866;2023-12-29T06:44:47;10.10;99.90
25128;DHT22;13107;51.304;6.866;2023-12-29T06:48:49;10.10;99.90
25128;DHT22;13107;51.304;6.866;2023-12-29T06:52:51;10.10;99.90
25128;DHT22;13107;51.304;6.866;2023-12-29T06:56:53;10.10;99.90
25128;DHT22;13107;51.304;6.866;2023-12-29T07:00:55;10.20;99.90
25128;DHT22;13107;51.304;6.866;2023-12-29T07:04:57;10.20;99.90
25128;DHT22;13107;51.304;6.866;2023-12-29T07:08:58;10.20;99.90
25128;DHT22;13107;51.304;6.866;2023-12-29T07:13:02;10.10;99.90
25128;DHT22;13107;51.304;6.866;2023-12-29T07:17:04;10.10;99.90
25128;DHT22;13107;51.304;6.866;2023-12-29T07:21:06;10.10;99.90
25128;DHT22;13107;51.304;6.866;2023-12-29T07:25:09;10.10;99.90
25128;DHT22;13107;51.304;6.866;2023-12-29T07:29:10;10.00;99.90
25128;DHT22;13107;51.304;6.866;2023-12-29T07:33:12;10.00;99.90
25128;DHT22;13107;51.304;6.866;2023-12-29T07:37:14;10.00;99.90
25128;DHT22;13107;51.304;6.866;2023-12-29T07:41:16;9.90;99.90
25128;DHT22;13107;51.304;6.866;2023-12-29T07:45:19;9.80;99.90
25128;DHT22;13107;51.304;6.866;2023-12-29T07:49:21;9.70;99.90
25128;DHT22;13107;51.304;6.866;2023-12-29T07:53:23;9.60;99.90
25128;DHT22;13107;51.304;6.866;2023-12-29T07:57:25;9.40;99.90
25128;DHT22;13107;51.304;6.866;2023-12-29T08:01:26;9.40;99.90
25128;DHT22;13107;51.304;6.866;2023-12-29T08:05:28;9.30;99.90
25128;DHT22;13107;51.304;6.866;2023-12-29T08:09:30;9.30;99.90
25128;DHT22;13107;51.304;6.866;2023-12-29T08:13:32;9.30;99.90
25128;DHT22;13107;51.304;6.866;2023-12-29T08:17:35;9.30;99.90
25128;DHT22;13107;51.304;6.866;2023-12-29T08:21:37;9.30;99.90
25128;DHT22;13107;51.304;6.866;2023-12-29T08:25:39;9.30;99.90
25128;DHT22;13107;51.304;6.866;2023-12-29T08:29:40;9.30;99.90
25128;DHT22;13107;51.304;6.866;2023-12-29T08:33:42;9.20;99.90
25128;DHT22;13107;51.304;6.866;2023-12-29T08:37:44;9.20;99.90
25128;DHT22;13107;51.304;6.866;2023-12-29T08:41:47;9.20;99.90
25128;DHT22;13107;51.304;6.866;2023-12-29T08:45:51;9.20;99.90
25128;DHT22;13107;51.304;6.866;2023-12-29T08:49:52;9.20;99.90
25128;DHT22;13107;51.304;6.866;2023-12-29T08:53:56;9.20;99.90
25128;DHT22;13107;51.304;6.866;2023-12-29T08:57:57;9.10;99.90
25128;DHT22;13107;51.304;6.866;2023-12-29T09:02:00;9.20;99.90
25128;DHT22;13107;51.304;6.866;2023-12-29T09:06:01;9.10;99.90
25128;DHT22;13107;51.304;6.866;2023-12-29T09:10:05;9.20;99.90
25128;DHT22;13107;51.304;6.866;2023-12-29T09:14:10;9.20;99.90
25128;DHT22;13107;51.304;6.866;2023-12-29T09:18:11;9.20;99.90
25128;DHT22;13107;51.304;6.866;2023-12-29T09:22:13;9.30;99.90
25128;DHT22;13107;51.304;6.866;2023-12-29T09:26:15;9.30;99.90
25128;DHT22;13107;51.304;6.866;2023-12-29T09:30:17;9.30;99.90
25128;DHT22;13107;51.304;6.866;2023-12-29T09:34:19;9.30;99.90
25128;DHT22;13107;51.304;6.866;2023-12-29T09:38:21;9.40;99.90
25128;DHT22;13107;51.304;6.866;2023-12-29T09:42:24;9.30;99.90
25128;DHT22;13107;51.304;6.866;2023-12-29T09:46:33;9.40;99.90
25128;DHT22;13107;51.304;6.866;2023-12-29T09:50:35;9.40;99.90
25128;DHT22;13107;51.304;6.866;2023-12-29T09:54:37;9.30;99.90
25128;DHT22;13107;51.304;6.866;2023-12-29T09:58:40;9.30;99.90
25128;DHT22;13107;51.304;6.866;2023-12-29T10:02:42;9.30;99.90
25128;DHT22;13107;51.304;6.866;2023-12-29T10:06:46;9.20;99.90
25128;DHT22;13107;51.304;6.866;2023-12-29T10:10:51;9.20;99.90
25128;DHT22;13107;51.304;6.866;2023-12-29T10:15:17;9.20;99.90
25128;DHT22;13107;51.304;6.866;2023-12-29T10:19:41;9.20;99.90
25128;DHT22;13107;51.304;6.866;2023-12-29T10:23:58;9.20;99.90
25128;DHT22;13107;51.304;6.866;2023-12-29T10:28:06;9.20;99.90
25128;DHT22;13107;51.304;6.866;2023-12-29T10:32:08;9.30;99.90
25128;DHT22;13107;51.304;6.866;2023-12-29T10:36:18;9.30;99.90
25128;DHT22;13107;51.304;6.866;2023-12-29T10:40:21;9.30;99.90
25128;DHT22;13107;51.304;6.866;2023-12-29T10:44:23;9.30;99.90
25128;DHT22;13107;51.304;6.866;2023-12-29T10:48:24;9.30;99.90
25128;DHT22;13107;51.304;6.866;2023-12-29T10:52:26;9.40;99.90
25128;DHT22;13107;51.304;6.866;2023-12-29T10:56:28;9.50;99.90
25128;DHT22;13107;51.304;6.866;2023-12-29T11:00:30;9.60;99.90
25128;DHT22;13107;51.304;6.866;2023-12-29T11:04:32;9.50;99.90
25128;DHT22;13107;51.304;6.866;2023-12-29T11:08:35;9.60;99.90
25128;DHT22;13107;51.304;6.866;2023-12-29T11:12:38;9.60;99.90
25128;DHT22;13107;51.304;6.866;2023-12-29T11:16:41;9.70;99.90
25128;DHT22;13107;51.304;6.866;2023-12-29T11:20:45;9.70;99.90
25128;DHT22;13107;51.304;6.866;2023-12-29T11:24:48;9.80;99.90
25128;DHT22;13107;51.304;6.866;2023-12-29T11:28:51;9.90;99.90
25128;DHT22;13107;51.304;6.866;2023-12-29T11:32:59;10.00;99.90
25128;DHT22;13107;51.304;6.866;2023-12-29T11:37:28;10.00;99.90
25128;DHT22;13107;51.304;6.866;2023-12-29T11:41:54;10.10;99.90
25128;DHT22;13107;51.304;6.866;2023-12-29T11:45:58;10.10;99.90
25128;DHT22;13107;51.304;6.866;2023-12-29T11:50:02;10.10;99.90
25128;DHT22;13107;51.304;6.866;2023-12-29T11:54:04;10.10;99.90
25128;DHT22;13107;51.304;6.866;2023-12-29T11:58:26;10.00;99.90
25128;DHT22;13107;51.304;6.866;2023-12-29T12:02:30;10.00;99.90
25128;DHT22;13107;51.304;6.866;2023-12-29T12:06:38;9.90;99.90
25128;DHT22;13107;51.304;6.866;2023-12-29T12:10:43;9.90;99.90
25128;DHT22;13107;51.304;6.866;2023-12-29T12:14:50;10.00;99.90
25128;DHT22;13107;51.304;6.866;2023-12-29T12:18:52;10.00;99.90
25128;DHT22;13107;51.304;6.866;2023-12-29T12:23:01;9.90;99.90
25128;DHT22;13107;51.304;6.866;2023-12-29T12:27:09;9.90;99.90
25128;DHT22;13107;51.304;6.866;2023-12-29T12:31:13;9.80;99.90
25128;DHT22;13107;51.304;6.866;2023-12-29T12:35:15;9.60;99.90
25128;DHT22;13107;51.304;6.866;2023-12-29T12:39:22;9.50;99.90
25128;DHT22;13107;51.304;6.866;2023-12-29T12:43:26;9.50;99.90
25128;DHT22;13107;51.304;6.866;2023-12-29T12:47:34;9.40;99.90
25128;DHT22;13107;51.304;6.866;2023-12-29T12:51:37;9.50;99.90
25128;DHT22;13107;51.304;6.866;2023-12-29T12:55:40;9.60;99.90
25128;DHT22;13107;51.304;6.866;2023-12-29T12:59:42;9.60;99.90
25128;DHT22;13107;51.304;6.866;2023-12-29T13:03:45;9.70;99.90
25128;DHT22;13107;51.304;6.866;2023-12-29T13:07:47;9.80;99.90
25128;DHT22;13107;51.304;6.866;2023-12-29T13:11:49;9.80;99.90
25128;DHT22;13107;51.304;6.866;2023-12-29T13:15:51;9.80;99.90
25128;DHT22;13107;51.304;6.866;2023-12-29T13:19:56;9.70;99.90
25128;DHT22;13107;51.304;6.866;2023-12-29T13:24:04;9.70;99.90
25128;DHT22;13107;51.304;6.866;2023-12-29T13:28:07;9.70;99.90
25128;DHT22;13107;51.304;6.866;2023-12-29T13:32:15;9.70;99.90
25128;DHT22;13107;51.304;6.866;2023-12-29T13:40:34;9.70;99.90
25128;DHT22;13107;51.304;6.866;2023-12-29T13:44:38;9.80;99.90
25128;DHT22;13107;51.304;6.866;2023-12-29T13:48:41;10.10;99.90
25128;DHT22;13107;51.304;6.866;2023-12-29T13:52:44;10.20;99.90
25128;DHT22;13107;51.304;6.866;2023-12-29T13:56:52;10.10;99.90
25128;DHT22;13107;51.304;6.866;2023-12-29T14:00:58;10.00;99.90
25128;DHT22;13107;51.304;6.866;2023-12-29T14:05:14;10.00;99.90
25128;DHT22;13107;51.304;6.866;2023-12-29T14:09:18;10.00;99.90
25128;DHT22;13107;51.304;6.866;2023-12-29T14:13:20;10.00;99.90
25128;DHT22;13107;51.304;6.866;2023-12-29T14:17:22;10.00;99.90
25128;DHT22;13107;51.304;6.866;2023-12-29T14:21:27;10.10;99.90
25128;DHT22;13107;51.304;6.866;2023-12-29T14:25:31;10.10;99.90
25128;DHT22;13107;51.304;6.866;2023-12-29T14:29:40;10.00;99.90
25128;DHT22;13107;51.304;6.866;2023-12-29T14:33:43;10.00;99.90
25128;DHT22;13107;51.304;6.866;2023-12-29T14:37:45;9.80;99.90
25128;DHT22;13107;51.304;6.866;2023-12-29T14:41:47;9.70;99.90
25128;DHT22;13107;51.304;6.866;2023-12-29T14:45:49;9.60;99.90
25128;DHT22;13107;51.304;6.866;2023-12-29T14:49:52;9.60;99.90
25128;DHT22;13107;51.304;6.866;2023-12-29T14:53:53;9.50;99.90
25128;DHT22;13107;51.304;6.866;2023-12-29T14:57:55;9.40;99.90
25128;DHT22;13107;51.304;6.866;2023-12-29T15:01:57;9.40;99.90
25128;DHT22;13107;51.304;6.866;2023-12-29T15:05:59;9.30;99.90
25128;DHT22;13107;51.304;6.866;2023-12-29T15:10:01;9.30;99.90
25128;DHT22;13107;51.304;6.866;2023-12-29T15:14:03;9.20;99.90
25128;DHT22;13107;51.304;6.866;2023-12-29T15:18:05;9.10;99.90
25128;DHT22;13107;51.304;6.866;2023-12-29T15:22:07;9.10;99.90
25128;DHT22;13107;51.304;6.866;2023-12-29T15:26:08;9.00;99.90
25128;DHT22;13107;51.304;6.866;2023-12-29T15:30:11;9.10;99.90
25128;DHT22;13107;51.304;6.866;2023-12-29T15:34:13;9.10;99.90
25128;DHT22;13107;51.304;6.866;2023-12-29T15:38:15;9.10;99.90
25128;DHT22;13107;51.304;6.866;2023-12-29T15:42:17;9.10;99.90
25128;DHT22;13107;51.304;6.866;2023-12-29T15:46:19;9.10;99.90
25128;DHT22;13107;51.304;6.866;2023-12-29T15:50:24;9.20;99.90
25128;DHT22;13107;51.304;6.866;2023-12-29T15:54:26;9.30;99.90
25128;DHT22;13107;51.304;6.866;2023-12-29T15:58:27;9.30;99.90
25128;DHT22;13107;51.304;6.866;2023-12-29T16:02:29;9.40;99.90
25128;DHT22;13107;51.304;6.866;2023-12-29T16:06:31;9.50;99.90
25128;DHT22;13107;51.304;6.866;2023-12-29T16:10:33;9.50;99.90
25128;DHT22;13107;51.304;6.866;2023-12-29T16:14:35;9.50;99.90
25128;DHT22;13107;51.304;6.866;2023-12-29T16:18:39;9.50;99.90
25128;DHT22;13107;51.304;6.866;2023-12-29T16:22:41;9.40;99.90
25128;DHT22;13107;51.304;6.866;2023-12-29T16:26:43;9.50;99.90
25128;DHT22;13107;51.304;6.866;2023-12-29T16:30:49;9.50;99.90
25128;DHT22;13107;51.304;6.866;2023-12-29T16:34:51;9.50;99.90
25128;DHT22;13107;51.304;6.866;2023-12-29T16:38:53;9.50;99.90
25128;DHT22;13107;51.304;6.866;2023-12-29T16:42:54;9.40;99.90
25128;DHT22;13107;51.304;6.866;2023-12-29T16:46:56;9.50;99.90
25128;DHT22;13107;51.304;6.866;2023-12-29T16:50:58;9.70;99.90
25128;DHT22;13107;51.304;6.866;2023-12-29T16:54:59;9.50;99.90
25128;DHT22;13107;51.304;6.866;2023-12-29T16:59:01;9.50;99.90
25128;DHT22;13107;51.304;6.866;2023-12-29T17:03:04;9.50;99.90
25128;DHT22;13107;51.304;6.866;2023-12-29T17:07:06;9.40;99.90
25128;DHT22;13107;51.304;6.866;2023-12-29T17:11:10;9.50;99.90
25128;DHT22;13107;51.304;6.866;2023-12-29T17:15:12;9.50;99.90
25128;DHT22;13107;51.304;6.866;2023-12-29T17:19:13;9.40;99.90
25128;DHT22;13107;51.304;6.866;2023-12-29T17:23:15;9.40;99.90
25128;DHT22;13107;51.304;6.866;2023-12-29T17:27:17;9.40;99.90
25128;DHT22;13107;51.304;6.866;2023-12-29T17:31:19;9.40;99.90
25128;DHT22;13107;51.304;6.866;2023-12-29T17:35:21;9.50;99.90
25128;DHT22;13107;51.304;6.866;2023-12-29T17:39:25;9.50;99.90
25128;DHT22;13107;51.304;6.866;2023-12-29T17:43:26;9.50;99.90
25128;DHT22;13107;51.304;6.866;2023-12-29T17:47:28;9.50;99.90
25128;DHT22;13107;51.304;6.866;2023-12-29T17:51:30;9.50;99.90
25128;DHT22;13107;51.304;6.866;2023-12-29T17:55:32;9.50;99.90
25128;DHT22;13107;51.304;6.866;2023-12-29T17:59:34;9.50;99.90
25128;DHT22;13107;51.304;6.866;2023-12-29T18:03:36;9.50;99.90
25128;DHT22;13107;51.304;6.866;2023-12-29T18:07:38;9.50;99.90
25128;DHT22;13107;51.304;6.866;2023-12-29T18:11:40;9.50;99.90
25128;DHT22;13107;51.304;6.866;2023-12-29T18:15:43;9.40;99.90
25128;DHT22;13107;51.304;6.866;2023-12-29T18:19:45;9.40;99.90
25128;DHT22;13107;51.304;6.866;2023-12-29T18:23:47;9.50;99.90
25128;DHT22;13107;51.304;6.866;2023-12-29T18:27:49;9.50;99.90
25128;DHT22;13107;51.304;6.866;2023-12-29T18:31:51;9.50;99.90
25128;DHT22;13107;51.304;6.866;2023-12-29T18:36:13;9.50;99.90
25128;DHT22;13107;51.304;6.866;2023-12-29T18:40:14;9.50;99.90
25128;DHT22;13107;51.304;6.866;2023-12-29T18:44:17;9.50;99.90
25128;DHT22;13107;51.304;6.866;2023-12-29T18:48:19;9.50;99.90
25128;DHT22;13107;51.304;6.866;2023-12-29T18:52:23;9.50;99.90
25128;DHT22;13107;51.304;6.866;2023-12-29T18:56:25;9.50;99.90
25128;DHT22;13107;51.304;6.866;2023-12-29T19:00:27;9.50;99.90
25128;DHT22;13107;51.304;6.866;2023-12-29T19:04:29;9.50;99.90
25128;DHT22;13107;51.304;6.866;2023-12-29T19:08:31;9.60;99.90
25128;DHT22;13107;51.304;6.866;2023-12-29T19:12:33;9.60;99.90
25128;DHT22;13107;51.304;6.866;2023-12-29T19:16:35;9.60;99.90
25128;DHT22;13107;51.304;6.866;2023-12-29T19:20:37;9.60;99.90
25128;DHT22;13107;51.304;6.866;2023-12-29T19:24:40;9.70;99.90
25128;DHT22;13107;51.304;6.866;2023-12-29T19:28:43;9.70;99.90
25128;DHT22;13107;51.304;6.866;2023-12-29T19:32:45;9.60;99.90
25128;DHT22;13107;51.304;6.866;2023-12-29T19:36:47;9.60;99.90
25128;DHT22;13107;51.304;6.866;2023-12-29T19:40:51;9.50;99.90
25128;DHT22;13107;51.304;6.866;2023-12-29T19:44:53;9.40;99.90
25128;DHT22;13107;51.304;6.866;2023-12-29T19:49:06;9.60;99.90
25128;DHT22;13107;51.304;6.866;2023-12-29T19:53:08;9.70;99.90
25128;DHT22;13107;51.304;6.866;2023-12-29T19:57:11;9.50;99.90
25128;DHT22;13107;51.304;6.866;2023-12-29T20:01:12;9.50;99.90
25128;DHT22;13107;51.304;6.866;2023-12-29T20:05:14;9.40;99.90
25128;DHT22;13107;51.304;6.866;2023-12-29T20:09:16;9.30;99.90
25128;DHT22;13107;51.304;6.866;2023-12-29T20:13:18;9.30;99.90
25128;DHT22;13107;51.304;6.866;2023-12-29T20:17:20;9.30;99.90
25128;DHT22;13107;51.304;6.866;2023-12-29T20:21:22;9.30;99.90
25128;DHT22;13107;51.304;6.866;2023-12-29T20:25:24;9.20;99.90
25128;DHT22;13107;51.304;6.866;2023-12-29T20:29:26;9.30;99.90
25128;DHT22;13107;51.304;6.866;2023-12-29T20:33:28;9.30;99.90
25128;DHT22;13107;51.304;6.866;2023-12-29T20:37:30;9.40;99.90
25128;DHT22;13107;51.304;6.866;2023-12-29T20:41:31;9.30;99.90
25128;DHT22;13107;51.304;6.866;2023-12-29T20:45:33;9.30;99.90
25128;DHT22;13107;51.304;6.866;2023-12-29T20:49:35;9.40;99.90
25128;DHT22;13107;51.304;6.866;2023-12-29T20:53:37;9.40;99.90
25128;DHT22;13107;51.304;6.866;2023-12-29T20:57:39;9.30;99.90
25128;DHT22;13107;51.304;6.866;2023-12-29T21:01:40;9.30;99.90
25128;DHT22;13107;51.304;6.866;2023-12-29T21:05:43;9.30;99.90
25128;DHT22;13107;51.304;6.866;2023-12-29T21:09:45;9.30;99.90
25128;DHT22;13107;51.304;6.866;2023-12-29T21:13:50;9.20;99.90
25128;DHT22;13107;51.304;6.866;2023-12-29T21:17:51;9.30;99.90
25128;DHT22;13107;51.304;6.866;2023-12-29T21:21:54;9.20;99.90
25128;DHT22;13107;51.304;6.866;2023-12-29T21:25:56;9.20;99.90
25128;DHT22;13107;51.304;6.866;2023-12-29T21:29:58;9.30;99.90
25128;DHT22;13107;51.304;6.866;2023-12-29T21:34:01;9.20;99.90
25128;DHT22;13107;51.304;6.866;2023-12-29T21:38:04;9.30;99.90
25128;DHT22;13107;51.304;6.866;2023-12-29T21:42:06;9.20;99.90
25128;DHT22;13107;51.304;6.866;2023-12-29T21:46:08;9.20;99.90
25128;DHT22;13107;51.304;6.866;2023-12-29T21:50:10;9.20;99.90
25128;DHT22;13107;51.304;6.866;2023-12-29T21:54:13;9.20;99.90
25128;DHT22;13107;51.304;6.866;2023-12-29T21:58:15;9.20;99.90
25128;DHT22;13107;51.304;6.866;2023-12-29T22:02:17;9.20;99.90
25128;DHT22;13107;51.304;6.866;2023-12-29T22:06:19;9.10;99.90
25128;DHT22;13107;51.304;6.866;2023-12-29T22:10:20;9.20;99.90
25128;DHT22;13107;51.304;6.866;2023-12-29T22:14:22;9.20;99.90
25128;DHT22;13107;51.304;6.866;2023-12-29T22:18:24;9.40;99.90
25128;DHT22;13107;51.304;6.866;2023-12-29T22:22:26;9.60;99.90
25128;DHT22;13107;51.304;6.866;2023-12-29T22:26:28;9.50;99.90
25128;DHT22;13107;51.304;6.866;2023-12-29T22:30:30;9.30;99.90
25128;DHT22;13107;51.304;6.866;2023-12-29T22:34:32;9.10;99.90
25128;DHT22;13107;51.304;6.866;2023-12-29T22:38:34;9.00;99.90
25128;DHT22;13107;51.304;6.866;2023-12-29T22:42:35;9.00;99.90
25128;DHT22;13107;51.304;6.866;2023-12-29T22:46:37;8.90;99.90
25128;DHT22;13107;51.304;6.866;2023-12-29T22:50:39;8.90;99.90
25128;DHT22;13107;51.304;6.866;2023-12-29T22:54:40;8.80;99.90
25128;DHT22;13107;51.304;6.866;2023-12-29T22:58:42;8.70;99.90
25128;DHT22;13107;51.304;6.866;2023-12-29T23:02:44;8.60;99.90
25128;DHT22;13107;51.304;6.866;2023-12-29T23:06:46;8.60;99.90
25128;DHT22;13107;51.304;6.866;2023-12-29T23:10:48;8.50;99.90
25128;DHT22;13107;51.304;6.866;2023-12-29T23:14:49;8.50;99.90
25128;DHT22;13107;51.304;6.866;2023-12-29T23:18:52;8.50;99.90
25128;DHT22;13107;51.304;6.866;2023-12-29T23:22:54;8.50;99.90
25128;DHT22;13107;51.304;6.866;2023-12-29T23:26:55;8.50;99.90
25128;DHT22;13107;51.304;6.866;2023-12-29T23:30:57;8.50;99.90
25128;DHT22;13107;51.304;6.866;2023-12-29T23:34:59;8.50;99.90
25128;DHT22;13107;51.304;6.866;2023-12-29T23:39:21;8.50;99.90
25128;DHT22;13107;51.304;6.866;2023-12-29T23:43:23;8.60;99.90
25128;DHT22;13107;51.304;6.866;2023-12-29T23:47:25;8.60;99.90
25128;DHT22;13107;51.304;6.866;2023-12-29T23:51:26;8.60;99.90
25128;DHT22;13107;51.304;6.866;2023-12-29T23:55:28;8.60;99.90
25128;DHT22;13107;51.304;6.866;2023-12-29T23:59:30;8.60;99.90
